Time;durP1;ratioP1;P1;durP2;ratioP2;P2;SDS_P1;SDS_P2;PMS_P1;PMS_P2;Temp;Humidity;BMP_temperature;BMP_pressure;BME280_temperature;BME280_humidity;BME280_pressure;Samples;Min_cycle;Max_cycle;Signal;HPM_P1;HPM_P2
2023/03/23 00:01:02;;;;;;;;;;;12.50;81.50;;;;;;9182827;19;19918;-66
2023/03/23 00:04:07;;;;;;;;;;;12.40;81.40;;;;;;9181842;19;19926;-66
2023/03/23 00:07:21;;;;;;;;;;;12.40;81.40;;;;;;9181823;19;19907;-66
2023/03/23 00:10:26;;;;;;;;;;;12.40;81.40;;;;;;9181644;19;19951;-66
2023/03/23 00:13:33;;;;;;;;;;;12.40;81.40;;;;;;9183329;19;19915;-66
2023/03/23 00:16:40;;;;;;;;;;;12.50;81.50;;;;;;9181124;19;19919;-66
2023/03/23 00:19:48;;;;;;;;;;;12.40;81.40;;;;;;9182610;19;19918;-66
2023/03/23 00:22:52;;;;;;;;;;;12.40;81.40;;;;;;9182003;19;19934;-66
2023/03/23 00:25:58;;;;;;;;;;;12.50;81.60;;;;;;9182718;19;19926;-66
2023/03/23 00:29:05;;;;;;;;;;;12.50;81.50;;;;;;9181144;19;20336;-66
2023/03/23 00:32:14;;;;;;;;;;;12.50;81.50;;;;;;9182009;19;19915;-66
2023/03/23 00:35:19;;;;;;;;;;;12.50;81.50;;;;;;9179057;19;19922;-66
2023/03/23 00:38:25;;;;;;;;;;;12.50;81.60;;;;;;9181980;19;19922;-66
2023/03/23 00:41:32;;;;;;;;;;;12.50;81.50;;;;;;9182223;19;19933;-65
2023/03/23 00:44:41;;;;;;;;;;;12.50;81.60;;;;;;9180288;19;19951;-66
2023/03/23 00:47:46;;;;;;;;;;;12.50;81.60;;;;;;9179730;19;19937;-66
2023/03/23 00:50:53;;;;;;;;;;;12.50;81.60;;;;;;9183125;19;19910;-66
2023/03/23 00:53:57;;;;;;;;;;;12.50;81.50;;;;;;9183548;19;19922;-64
2023/03/23 00:57:03;;;;;;;;;;;12.50;81.60;;;;;;9172301;19;19922;-65
2023/03/23 01:00:11;;;;;;;;;;;12.50;81.50;;;;;;9180353;19;20301;-65
2023/03/23 01:03:18;;;;;;;;;;;12.50;81.50;;;;;;9180449;19;19933;-64
2023/03/23 01:06:22;;;;;;;;;;;12.50;81.50;;;;;;9180364;19;19926;-65
2023/03/23 01:09:28;;;;;;;;;;;12.50;81.60;;;;;;9179088;19;19927;-64
2023/03/23 01:12:32;;;;;;;;;;;12.50;81.50;;;;;;9180701;19;20270;-64
2023/03/23 01:15:40;;;;;;;;;;;12.50;81.50;;;;;;9180044;19;20314;-65
2023/03/23 01:18:44;;;;;;;;;;;12.60;81.60;;;;;;9177261;19;20335;-64
2023/03/23 01:21:51;;;;;;;;;;;12.60;81.60;;;;;;9180252;19;19910;-64
2023/03/23 01:24:54;;;;;;;;;;;12.50;81.60;;;;;;9179478;19;20257;-64
2023/03/23 01:28:01;;;;;;;;;;;12.60;81.60;;;;;;9178392;19;19918;-64
2023/03/23 01:31:08;;;;;;;;;;;12.50;82.10;;;;;;9177109;19;19918;-64
2023/03/23 01:34:19;;;;;;;;;;;12.50;81.50;;;;;;9178723;19;19925;-64
2023/03/23 01:37:25;;;;;;;;;;;12.60;81.60;;;;;;9174680;19;20333;-64
2023/03/23 01:40:33;;;;;;;;;;;12.60;81.60;;;;;;9178240;19;19930;-65
2023/03/23 01:43:38;;;;;;;;;;;12.50;81.50;;;;;;9179973;19;20333;-65
2023/03/23 01:46:46;;;;;;;;;;;12.60;81.60;;;;;;9179521;19;19922;-65
2023/03/23 01:49:50;;;;;;;;;;;12.60;81.60;;;;;;9178314;19;20316;-65
2023/03/23 01:52:57;;;;;;;;;;;12.60;82.20;;;;;;9178462;19;19926;-65
2023/03/23 01:56:01;;;;;;;;;;;12.60;81.60;;;;;;9170511;19;20329;-64
2023/03/23 01:59:07;;;;;;;;;;;12.60;81.60;;;;;;9177593;19;19915;-65
2023/03/23 02:02:14;;;;;;;;;;;12.60;81.60;;;;;;9177352;19;19929;-65
2023/03/23 02:05:24;;;;;;;;;;;12.60;81.60;;;;;;9178713;19;19921;-65
2023/03/23 02:08:29;;;;;;;;;;;12.60;81.60;;;;;;9175567;19;19922;-65
2023/03/23 02:11:35;;;;;;;;;;;12.50;81.50;;;;;;9179098;19;19930;-65
2023/03/23 02:14:40;;;;;;;;;;;12.60;81.60;;;;;;9177119;19;19930;-65
2023/03/23 02:17:54;;;;;;;;;;;12.60;81.60;;;;;;9173998;19;19925;-64
2023/03/23 02:21:13;;;;;;;;;;;12.60;81.60;;;;;;9177052;19;19923;-64
2023/03/23 02:24:36;;;;;;;;;;;12.60;81.60;;;;;;9175843;19;19922;-64
2023/03/23 02:27:57;;;;;;;;;;;12.60;81.60;;;;;;9173706;19;19934;-64
2023/03/23 02:31:11;;;;;;;;;;;12.60;81.60;;;;;;9176571;19;19929;-65
2023/03/23 02:34:19;;;;;;;;;;;12.60;81.60;;;;;;9177797;19;19911;-65
2023/03/23 02:37:28;;;;;;;;;;;12.60;81.70;;;;;;9173462;19;19926;-65
2023/03/23 02:40:34;;;;;;;;;;;12.60;81.60;;;;;;9176177;19;19923;-65
2023/03/23 02:43:42;;;;;;;;;;;12.60;81.60;;;;;;9178022;19;20253;-65
2023/03/23 02:46:46;;;;;;;;;;;12.60;81.60;;;;;;9175910;19;19927;-65
2023/03/23 02:49:55;;;;;;;;;;;12.60;81.60;;;;;;9177291;19;19915;-65
2023/03/23 02:53:00;;;;;;;;;;;12.60;81.60;;;;;;9175461;19;19922;-65
2023/03/23 02:56:08;;;;;;;;;;;12.60;81.60;;;;;;9169915;19;20328;-65
2023/03/23 02:59:12;;;;;;;;;;;12.60;81.50;;;;;;9177135;19;19929;-65
2023/03/23 03:02:19;;;;;;;;;;;12.60;81.60;;;;;;9175205;19;19922;-65
2023/03/23 03:05:30;;;;;;;;;;;12.60;81.60;;;;;;9174911;19;19926;-65
2023/03/23 03:08:41;;;;;;;;;;;12.60;81.60;;;;;;9179223;19;19915;-65
2023/03/23 03:11:50;;;;;;;;;;;12.60;81.60;;;;;;9183870;19;20384;-65
2023/03/23 03:14:59;;;;;;;;;;;12.60;81.50;;;;;;9184419;19;20368;-65
2023/03/23 03:18:09;;;;;;;;;;;12.60;81.50;;;;;;9182345;19;19923;-64
2023/03/23 03:21:19;;;;;;;;;;;12.60;81.60;;;;;;9184573;19;19931;-65
2023/03/23 03:24:26;;;;;;;;;;;12.60;81.60;;;;;;9179177;19;19930;-65
2023/03/23 03:27:34;;;;;;;;;;;12.60;81.50;;;;;;9184339;19;19911;-65
2023/03/23 03:30:53;;;;;;;;;;;12.70;81.60;;;;;;9182845;19;19941;-65
2023/03/23 03:34:01;;;;;;;;;;;12.70;81.50;;;;;;9181987;19;19918;-65
2023/03/23 03:37:08;;;;;;;;;;;12.70;81.60;;;;;;9180795;19;19947;-64
2023/03/23 03:40:16;;;;;;;;;;;12.70;81.60;;;;;;9182295;19;19915;-65
2023/03/23 03:43:20;;;;;;;;;;;12.70;81.60;;;;;;9181950;19;19923;-64
2023/03/23 03:46:29;;;;;;;;;;;12.70;81.60;;;;;;9181926;19;19926;-65
2023/03/23 03:49:35;;;;;;;;;;;12.70;81.60;;;;;;9185141;19;20000;-65
2023/03/23 03:52:43;;;;;;;;;;;12.70;82.20;;;;;;9182041;19;19929;-64
2023/03/23 03:55:48;;;;;;;;;;;12.70;81.60;;;;;;9176501;19;19929;-65
2023/03/23 03:58:55;;;;;;;;;;;12.80;81.60;;;;;;9181359;19;19926;-65
2023/03/23 04:02:37;;;;;;;;;;;12.70;81.50;;;;;;9183677;19;19935;-64
2023/03/23 04:05:44;;;;;;;;;;;12.80;81.60;;;;;;9181249;19;20249;-65
2023/03/23 04:09:05;;;;;;;;;;;12.80;81.60;;;;;;9179504;19;19925;-64
2023/03/23 04:12:15;;;;;;;;;;;12.80;81.60;;;;;;9183507;19;19921;-65
2023/03/23 04:15:32;;;;;;;;;;;12.80;81.60;;;;;;9182827;19;19944;-64
2023/03/23 04:18:38;;;;;;;;;;;12.80;81.50;;;;;;9177022;19;19919;-65
2023/03/23 04:21:45;;;;;;;;;;;12.80;81.50;;;;;;9181572;19;19926;-64
2023/03/23 04:24:53;;;;;;;;;;;12.90;81.60;;;;;;9184569;19;19915;-64
2023/03/23 04:28:01;;;;;;;;;;;12.90;81.60;;;;;;9184483;19;19922;-64
2023/03/23 04:31:12;;;;;;;;;;;12.90;81.60;;;;;;9180866;19;19911;-64
2023/03/23 04:34:21;;;;;;;;;;;12.90;81.60;;;;;;9180447;19;19945;-64
2023/03/23 04:37:34;;;;;;;;;;;12.90;81.60;;;;;;9178578;19;19926;-65
2023/03/23 04:40:42;;;;;;;;;;;12.90;81.50;;;;;;9180863;19;19919;-65
2023/03/23 04:44:04;;;;;;;;;;;12.90;81.60;;;;;;9179663;19;19919;-65
2023/03/23 04:47:17;;;;;;;;;;;12.90;81.60;;;;;;9180870;19;19956;-65
2023/03/23 04:50:32;;;;;;;;;;;12.90;81.60;;;;;;9180170;19;19930;-65
2023/03/23 04:53:43;;;;;;;;;;;12.90;81.60;;;;;;9179972;19;19923;-65
2023/03/23 04:56:52;;;;;;;;;;;12.90;81.60;;;;;;9174497;19;19910;-65
2023/03/23 04:59:56;;;;;;;;;;;12.90;81.60;;;;;;9179956;19;19958;-65
2023/03/23 05:03:16;;;;;;;;;;;12.90;81.50;;;;;;9179489;19;19922;-65
2023/03/23 05:06:21;;;;;;;;;;;12.90;81.60;;;;;;9178991;19;19925;-65
2023/03/23 05:09:31;;;;;;;;;;;12.90;81.60;;;;;;9176828;19;19918;-65
2023/03/23 05:12:37;;;;;;;;;;;12.90;81.60;;;;;;9178980;19;20258;-65
2023/03/23 05:15:46;;;;;;;;;;;12.90;81.60;;;;;;9176531;19;19930;-65
2023/03/23 05:18:57;;;;;;;;;;;12.90;81.60;;;;;;9181162;19;19918;-65
2023/03/23 05:22:03;;;;;;;;;;;12.90;81.60;;;;;;9178685;19;19910;-65
2023/03/23 05:25:20;;;;;;;;;;;12.90;81.60;;;;;;9178916;19;19994;-65
2023/03/23 05:28:36;;;;;;;;;;;12.90;81.60;;;;;;9178318;19;19918;-65
2023/03/23 05:31:45;;;;;;;;;;;12.90;81.60;;;;;;9177812;19;19918;-65
2023/03/23 05:34:51;;;;;;;;;;;12.90;81.60;;;;;;9180466;19;19918;-65
2023/03/23 05:37:55;;;;;;;;;;;12.90;81.60;;;;;;9174883;19;19914;-65
2023/03/23 05:41:08;;;;;;;;;;;12.90;81.60;;;;;;9179068;19;19937;-65
2023/03/23 05:44:19;;;;;;;;;;;12.90;81.60;;;;;;9179833;19;19926;-65
2023/03/23 05:47:28;;;;;;;;;;;12.90;81.60;;;;;;9178042;19;19930;-65
2023/03/23 05:50:35;;;;;;;;;;;13.00;81.70;;;;;;9178290;19;19915;-65
2023/03/23 05:53:43;;;;;;;;;;;12.90;81.60;;;;;;9177940;19;20022;-65
2023/03/23 05:56:49;;;;;;;;;;;12.90;81.60;;;;;;9171376;19;19918;-65
2023/03/23 06:00:13;;;;;;;;;;;12.90;81.60;;;;;;9177479;19;19918;-65
2023/03/23 06:03:19;;;;;;;;;;;12.90;81.60;;;;;;9177013;19;19927;-65
2023/03/23 06:06:32;;;;;;;;;;;13.00;81.60;;;;;;9177550;19;20284;-64
2023/03/23 06:09:45;;;;;;;;;;;13.00;81.60;;;;;;9173980;19;19932;-64
2023/03/23 06:13:10;;;;;;;;;;;13.00;81.60;;;;;;9176624;19;20237;-64
2023/03/23 06:16:24;;;;;;;;;;;13.00;81.60;;;;;;9176237;19;20709;-65
2023/03/23 06:19:36;;;;;;;;;;;13.00;81.60;;;;;;9176666;19;20364;-65
2023/03/23 06:22:47;;;;;;;;;;;13.00;81.60;;;;;;9177134;19;19927;-65
2023/03/23 06:26:05;;;;;;;;;;;13.10;81.60;;;;;;9176510;19;19911;-65
2023/03/23 06:29:12;;;;;;;;;;;13.10;81.60;;;;;;9176015;19;19925;-66
2023/03/23 06:32:25;;;;;;;;;;;13.10;81.60;;;;;;9176510;19;19968;-65
2023/03/23 06:35:30;;;;;;;;;;;13.10;81.60;;;;;;9176661;19;19926;-65
2023/03/23 06:38:58;;;;;;;;;;;13.10;81.60;;;;;;9173966;19;20254;-64
2023/03/23 06:42:13;;;;;;;;;;;13.10;81.60;;;;;;9178259;19;19947;-64
2023/03/23 06:45:25;;;;;;;;;;;13.20;81.60;;;;;;9193778;19;19921;-65
2023/03/23 06:48:45;;;;;;;;;;;13.20;81.60;;;;;;9191652;19;19951;-64
2023/03/23 06:51:55;;;;;;;;;;;13.20;81.60;;;;;;9193253;19;20268;-64
2023/03/23 06:55:01;;;;;;;;;;;13.30;81.60;;;;;;9193171;19;19927;-65
2023/03/23 06:58:08;;;;;;;;;;;13.30;81.60;;;;;;9185580;19;19926;-65
2023/03/23 07:01:12;;;;;;;;;;;13.30;81.60;;;;;;9194404;19;19918;-64
2023/03/23 07:04:26;;;;;;;;;;;13.40;81.50;;;;;;9191531;19;19923;-65
2023/03/23 07:07:44;;;;;;;;;;;13.40;81.50;;;;;;9190412;19;19933;-65
2023/03/23 07:11:12;;;;;;;;;;;13.40;81.40;;;;;;9190973;19;19922;-65
2023/03/23 07:14:17;;;;;;;;;;;13.40;81.40;;;;;;9183739;19;19926;-65
2023/03/23 07:17:23;;;;;;;;;;;13.40;81.40;;;;;;9181849;19;20332;-65
2023/03/23 07:20:43;;;;;;;;;;;13.40;81.30;;;;;;9182997;19;19924;-64
2023/03/23 07:23:48;;;;;;;;;;;13.40;81.30;;;;;;9185280;19;19929;-66
2023/03/23 07:27:00;;;;;;;;;;;13.40;81.20;;;;;;9179422;19;19974;-66
2023/03/23 07:30:10;;;;;;;;;;;13.30;81.20;;;;;;9182586;19;20260;-66
2023/03/23 07:33:15;;;;;;;;;;;13.30;81.20;;;;;;9183449;19;19927;-65
2023/03/23 07:36:22;;;;;;;;;;;13.20;81.10;;;;;;9185869;19;19919;-66
2023/03/23 07:39:27;;;;;;;;;;;13.20;81.10;;;;;;9182257;19;19919;-65
2023/03/23 07:42:35;;;;;;;;;;;13.10;81.10;;;;;;9184284;19;19922;-66
2023/03/23 07:45:39;;;;;;;;;;;13.10;81.10;;;;;;9184868;19;20010;-66
2023/03/23 07:48:46;;;;;;;;;;;13.00;81.10;;;;;;9183683;19;19921;-66
2023/03/23 07:51:52;;;;;;;;;;;12.90;81.20;;;;;;9185598;19;19977;-67
2023/03/23 07:54:58;;;;;;;;;;;12.90;81.20;;;;;;9183612;19;19921;-66
2023/03/23 07:58:25;;;;;;;;;;;12.80;81.20;;;;;;9171034;19;19922;-65
2023/03/23 08:01:34;;;;;;;;;;;12.80;81.30;;;;;;9172616;19;20276;-66
2023/03/23 08:04:56;;;;;;;;;;;12.70;81.20;;;;;;9172492;19;20249;-66
2023/03/23 08:08:23;;;;;;;;;;;12.70;81.30;;;;;;9164425;19;19919;-67
2023/03/23 08:11:47;;;;;;;;;;;12.60;81.40;;;;;;9171365;19;19923;-67
2023/03/23 08:14:56;;;;;;;;;;;12.60;81.40;;;;;;9168901;19;20810;-66
2023/03/23 08:18:16;;;;;;;;;;;12.50;81.40;;;;;;9168573;19;19915;-66
2023/03/23 08:21:45;;;;;;;;;;;12.50;81.40;;;;;;9170663;19;19970;-66
2023/03/23 08:25:11;;;;;;;;;;;12.50;81.40;;;;;;9172776;19;19942;-67
2023/03/23 08:28:34;;;;;;;;;;;12.50;81.50;;;;;;9173236;19;19918;-67
2023/03/23 08:31:44;;;;;;;;;;;12.40;81.40;;;;;;9172880;19;19955;-67
2023/03/23 08:35:08;;;;;;;;;;;12.40;81.40;;;;;;9174015;19;20347;-66
2023/03/23 08:38:24;;;;;;;;;;;12.40;81.40;;;;;;9168468;19;19918;-66
2023/03/23 08:42:11;;;;;;;;;;;12.40;81.40;;;;;;9170980;19;19914;-66
2023/03/23 08:45:34;;;;;;;;;;;12.30;81.40;;;;;;9180142;19;19942;-67
2023/03/23 08:49:15;;;;;;;;;;;12.30;81.40;;;;;;9177305;19;19926;-66
2023/03/23 08:52:43;;;;;;;;;;;12.30;81.50;;;;;;9180198;19;19918;-66
2023/03/23 08:55:58;;;;;;;;;;;12.30;81.60;;;;;;9175258;19;19919;-66
2023/03/23 08:59:42;;;;;;;;;;;12.30;81.70;;;;;;9173463;19;19918;-65
2023/03/23 09:02:56;;;;;;;;;;;12.30;81.70;;;;;;9165289;19;20303;-66
2023/03/23 09:06:08;;;;;;;;;;;12.40;81.80;;;;;;9166388;19;19932;-65
2023/03/23 09:09:22;;;;;;;;;;;12.30;81.80;;;;;;9166338;19;19934;-65
2023/03/23 09:12:26;;;;;;;;;;;12.40;81.80;;;;;;9168453;19;19922;-65
2023/03/23 09:15:34;;;;;;;;;;;12.40;81.80;;;;;;9165931;19;19918;-65
2023/03/23 09:18:49;;;;;;;;;;;12.50;81.90;;;;;;9162952;19;19919;-65
2023/03/23 09:21:56;;;;;;;;;;;12.50;81.80;;;;;;9162453;19;19918;-65
2023/03/23 09:25:00;;;;;;;;;;;12.50;81.80;;;;;;9164346;19;19921;-65
2023/03/23 09:28:06;;;;;;;;;;;12.50;81.70;;;;;;9170672;19;19919;-65
2023/03/23 09:31:12;;;;;;;;;;;12.50;81.70;;;;;;9163912;19;20144;-65
2023/03/23 09:34:18;;;;;;;;;;;12.60;81.70;;;;;;9164384;19;19934;-65
2023/03/23 09:37:22;;;;;;;;;;;12.60;81.70;;;;;;9163905;19;19959;-65
2023/03/23 09:40:32;;;;;;;;;;;12.60;81.70;;;;;;9161132;19;19918;-65
2023/03/23 09:43:40;;;;;;;;;;;12.60;82.30;;;;;;9168758;19;19926;-65
2023/03/23 09:46:53;;;;;;;;;;;12.70;81.80;;;;;;9173284;19;19927;-65
2023/03/23 09:49:59;;;;;;;;;;;12.70;81.80;;;;;;9172532;19;19930;-65
2023/03/23 09:53:11;;;;;;;;;;;12.70;81.70;;;;;;9172616;19;19918;-65
2023/03/23 09:56:17;;;;;;;;;;;12.70;81.70;;;;;;9161992;19;19937;-65
2023/03/23 09:59:26;;;;;;;;;;;12.80;81.70;;;;;;9166231;19;19943;-65
2023/03/23 10:02:34;;;;;;;;;;;12.80;81.80;;;;;;9169320;19;19927;-66
2023/03/23 10:05:42;;;;;;;;;;;12.80;82.30;;;;;;9159469;19;19925;-64
2023/03/23 10:08:48;;;;;;;;;;;12.90;81.80;;;;;;9169383;19;19942;-65
2023/03/23 10:12:07;;;;;;;;;;;12.90;81.80;;;;;;9170058;19;20292;-65
2023/03/23 10:15:13;;;;;;;;;;;13.00;81.80;;;;;;9169499;19;19926;-65
2023/03/23 10:18:22;;;;;;;;;;;13.00;81.80;;;;;;9165366;19;20307;-64
2023/03/23 10:21:27;;;;;;;;;;;13.10;81.90;;;;;;9172590;19;19922;-66
2023/03/23 10:24:36;;;;;;;;;;;13.10;81.80;;;;;;9171345;19;19918;-66
2023/03/23 10:27:44;;;;;;;;;;;13.30;81.90;;;;;;9171143;19;19915;-65
2023/03/23 10:30:52;;;;;;;;;;;13.30;81.80;;;;;;9171931;19;19915;-66
2023/03/23 10:34:00;;;;;;;;;;;13.40;81.80;;;;;;9170492;19;19923;-66
2023/03/23 10:37:10;;;;;;;;;;;13.40;81.80;;;;;;9171251;19;19923;-66
2023/03/23 10:40:16;;;;;;;;;;;13.50;81.80;;;;;;9165967;19;19926;-66
2023/03/23 10:43:27;;;;;;;;;;;13.60;81.90;;;;;;9169570;19;19922;-66
2023/03/23 10:46:36;;;;;;;;;;;13.70;81.90;;;;;;9169501;19;19933;-66
2023/03/23 10:49:56;;;;;;;;;;;13.80;81.90;;;;;;9170526;19;19923;-66
2023/03/23 10:53:05;;;;;;;;;;;14.10;82.00;;;;;;9165651;19;19985;-66
2023/03/23 10:56:22;;;;;;;;;;;14.20;81.90;;;;;;9163875;19;20288;-66
2023/03/23 10:59:28;;;;;;;;;;;14.40;81.80;;;;;;9157807;19;19950;-64
2023/03/23 11:02:38;;;;;;;;;;;14.50;81.70;;;;;;9161570;19;19919;-64
2023/03/23 11:05:46;;;;;;;;;;;14.70;81.50;;;;;;9163678;19;19929;-63
2023/03/23 11:08:54;;;;;;;;;;;14.80;81.40;;;;;;9167952;19;19960;-64
2023/03/23 11:11:58;;;;;;;;;;;14.90;81.40;;;;;;9169668;19;19951;-69
2023/03/23 11:15:25;;;;;;;;;;;15.00;81.30;;;;;;9165811;19;19938;-64
2023/03/23 11:18:37;;;;;;;;;;;15.10;81.20;;;;;;9164914;19;19923;-64
2023/03/23 11:21:49;;;;;;;;;;;15.20;81.20;;;;;;9156736;19;20508;-63
2023/03/23 11:24:55;;;;;;;;;;;15.20;81.10;;;;;;9158204;19;19940;-63
2023/03/23 11:28:02;;;;;;;;;;;15.30;81.20;;;;;;9157244;19;19922;-63
2023/03/23 11:31:07;;;;;;;;;;;15.40;81.30;;;;;;9171507;19;20268;-64
2023/03/23 11:34:16;;;;;;;;;;;15.50;81.30;;;;;;9172927;19;19911;-64
2023/03/23 11:37:25;;;;;;;;;;;15.70;81.30;;;;;;9169501;19;20412;-64
2023/03/23 11:40:35;;;;;;;;;;;15.90;81.20;;;;;;9175685;19;20316;-64
2023/03/23 11:43:41;;;;;;;;;;;16.00;80.90;;;;;;9172388;19;20175;-64
2023/03/23 11:46:55;;;;;;;;;;;16.10;80.80;;;;;;9176709;19;20268;-64
2023/03/23 11:50:02;;;;;;;;;;;16.20;80.70;;;;;;9169745;19;19937;-64
2023/03/23 11:53:15;;;;;;;;;;;16.30;80.60;;;;;;9172911;19;20273;-64
2023/03/23 11:56:25;;;;;;;;;;;16.30;80.50;;;;;;9167570;19;19930;-64
2023/03/23 11:59:33;;;;;;;;;;;16.30;80.40;;;;;;9170734;19;19933;-64
2023/03/23 12:02:45;;;;;;;;;;;16.30;80.40;;;;;;9173357;19;19911;-64
2023/03/23 12:05:53;;;;;;;;;;;16.30;80.30;;;;;;9173493;19;19919;-65
2023/03/23 12:09:06;;;;;;;;;;;16.30;80.30;;;;;;9171309;19;19930;-65
2023/03/23 12:12:17;;;;;;;;;;;16.30;80.30;;;;;;9175475;19;20261;-64
2023/03/23 12:15:25;;;;;;;;;;;16.30;80.30;;;;;;9174364;19;19910;-65
2023/03/23 12:18:39;;;;;;;;;;;16.30;80.20;;;;;;9173689;19;19926;-64
2023/03/23 12:21:51;;;;;;;;;;;16.20;80.10;;;;;;9173416;19;20714;-64
2023/03/23 12:25:05;;;;;;;;;;;16.20;80.20;;;;;;9174523;19;19926;-64
2023/03/23 12:28:17;;;;;;;;;;;16.10;80.20;;;;;;9172460;19;19926;-65
2023/03/23 12:31:27;;;;;;;;;;;16.10;80.90;;;;;;9171216;19;19914;-64
2023/03/23 12:34:37;;;;;;;;;;;16.20;80.40;;;;;;9175397;19;19919;-64
2023/03/23 12:37:47;;;;;;;;;;;16.20;80.40;;;;;;9172156;19;19923;-64
2023/03/23 12:40:59;;;;;;;;;;;16.30;80.40;;;;;;9172683;19;19923;-64
2023/03/23 12:44:09;;;;;;;;;;;16.30;80.20;;;;;;9170987;19;19940;-63
2023/03/23 12:47:22;;;;;;;;;;;16.40;80.20;;;;;;9171936;19;20361;-65
2023/03/23 12:50:30;;;;;;;;;;;16.40;80.10;;;;;;9171448;19;20229;-64
2023/03/23 12:53:36;;;;;;;;;;;16.50;80.00;;;;;;9167840;19;20438;-62
2023/03/23 12:56:48;;;;;;;;;;;16.50;79.90;;;;;;9157127;19;20002;-63
2023/03/23 12:59:55;;;;;;;;;;;16.50;79.90;;;;;;9162555;19;19929;-63
2023/03/23 13:03:04;;;;;;;;;;;16.50;79.90;;;;;;9166970;19;19922;-63
2023/03/23 13:06:14;;;;;;;;;;;16.50;79.80;;;;;;9161975;19;19929;-63
2023/03/23 13:09:23;;;;;;;;;;;16.50;79.80;;;;;;9163548;19;19922;-63
2023/03/23 13:12:29;;;;;;;;;;;16.50;79.80;;;;;;9164340;19;19923;-64
2023/03/23 13:15:39;;;;;;;;;;;16.60;79.80;;;;;;9163989;19;19929;-64
2023/03/23 13:18:46;;;;;;;;;;;16.60;79.70;;;;;;9163647;19;19931;-64
2023/03/23 13:21:56;;;;;;;;;;;16.70;79.70;;;;;;9163857;19;19938;-64
2023/03/23 13:25:03;;;;;;;;;;;16.70;79.60;;;;;;9167329;19;19922;-64
2023/03/23 13:28:17;;;;;;;;;;;16.70;79.40;;;;;;9166675;19;20344;-64
2023/03/23 13:31:25;;;;;;;;;;;16.70;79.30;;;;;;9160501;19;19926;-64
2023/03/23 13:34:32;;;;;;;;;;;16.70;79.30;;;;;;9162068;19;19915;-64
2023/03/23 13:37:36;;;;;;;;;;;16.70;79.30;;;;;;9162373;19;19915;-64
2023/03/23 13:40:44;;;;;;;;;;;16.70;79.20;;;;;;9162238;19;19922;-64
2023/03/23 13:43:50;;;;;;;;;;;16.70;79.20;;;;;;9160552;19;20349;-64
2023/03/23 13:46:58;;;;;;;;;;;16.70;79.10;;;;;;9164792;19;19925;-65
2023/03/23 13:50:04;;;;;;;;;;;16.70;79.10;;;;;;9163137;19;20336;-64
2023/03/23 13:53:15;;;;;;;;;;;16.60;79.00;;;;;;9162059;19;21681;-64
2023/03/23 13:56:21;;;;;;;;;;;16.60;79.00;;;;;;9162172;19;19930;-64
2023/03/23 13:59:33;;;;;;;;;;;16.50;79.00;;;;;;9167702;19;19915;-64
2023/03/23 14:02:39;;;;;;;;;;;16.40;79.00;;;;;;9164102;19;20332;-68
2023/03/23 14:05:47;;;;;;;;;;;16.30;79.00;;;;;;9161129;19;19935;-67
2023/03/23 14:08:53;;;;;;;;;;;16.20;78.90;;;;;;9161364;19;19920;-68
2023/03/23 14:12:05;;;;;;;;;;;16.10;79.00;;;;;;9162510;19;20568;-67
2023/03/23 14:15:16;;;;;;;;;;;16.00;79.00;;;;;;9162629;19;19930;-67
2023/03/23 14:18:23;;;;;;;;;;;15.90;79.00;;;;;;9161607;19;19921;-67
2023/03/23 14:21:34;;;;;;;;;;;15.80;79.10;;;;;;9169622;19;19932;-66
2023/03/23 14:24:41;;;;;;;;;;;15.70;79.10;;;;;;9163745;19;19922;-67
2023/03/23 14:27:46;;;;;;;;;;;15.60;79.20;;;;;;9161787;19;20339;-66
2023/03/23 14:30:57;;;;;;;;;;;15.50;79.10;;;;;;9161982;19;19922;-66
2023/03/23 14:34:04;;;;;;;;;;;15.50;79.20;;;;;;9162556;19;19960;-66
2023/03/23 14:37:13;;;;;;;;;;;15.50;79.20;;;;;;9157534;19;20258;-67
2023/03/23 14:40:18;;;;;;;;;;;15.50;79.20;;;;;;9157771;19;20268;-67
2023/03/23 14:43:24;;;;;;;;;;;15.50;79.30;;;;;;9163607;19;19914;-66
2023/03/23 14:46:31;;;;;;;;;;;15.50;79.20;;;;;;9161906;19;19934;-67
2023/03/23 14:49:38;;;;;;;;;;;15.50;79.20;;;;;;9167210;19;19918;-67
2023/03/23 14:52:42;;;;;;;;;;;15.50;79.20;;;;;;9171467;19;19922;-67
2023/03/23 14:55:49;;;;;;;;;;;15.60;79.80;;;;;;9160515;19;19934;-66
2023/03/23 14:58:53;;;;;;;;;;;15.60;79.10;;;;;;9167442;19;19929;-65
2023/03/23 15:02:01;;;;;;;;;;;15.60;79.00;;;;;;9165220;19;20458;-66
2023/03/23 15:05:08;;;;;;;;;;;15.60;79.00;;;;;;9174581;19;19926;-66
2023/03/23 15:08:16;;;;;;;;;;;15.60;79.00;;;;;;9170732;19;20296;-67
2023/03/23 15:11:27;;;;;;;;;;;15.60;78.90;;;;;;9171653;19;19930;-66
2023/03/23 15:14:34;;;;;;;;;;;15.60;78.90;;;;;;9176759;19;19922;-67
2023/03/23 15:17:40;;;;;;;;;;;15.60;78.90;;;;;;9177060;19;20345;-67
2023/03/23 15:20:48;;;;;;;;;;;15.60;78.90;;;;;;9174608;19;19923;-67
2023/03/23 15:23:54;;;;;;;;;;;15.60;79.50;;;;;;9177660;19;19925;-67
2023/03/23 15:27:05;;;;;;;;;;;15.60;78.80;;;;;;9177959;19;20328;-66
2023/03/23 15:30:14;;;;;;;;;;;15.60;78.80;;;;;;9174575;19;20264;-67
2023/03/23 15:33:27;;;;;;;;;;;15.50;78.80;;;;;;9173599;19;19957;-67
2023/03/23 15:36:33;;;;;;;;;;;15.50;78.80;;;;;;9175705;19;19923;-67
2023/03/23 15:39:42;;;;;;;;;;;15.50;78.80;;;;;;9173026;19;20015;-67
2023/03/23 15:42:46;;;;;;;;;;;15.50;78.90;;;;;;9170401;19;19930;-67
2023/03/23 15:46:00;;;;;;;;;;;15.50;78.80;;;;;;9171633;19;19926;-68
2023/03/23 15:49:10;;;;;;;;;;;15.40;78.80;;;;;;9173508;19;20703;-67
2023/03/23 15:52:16;;;;;;;;;;;15.40;78.80;;;;;;9175605;19;19930;-67
2023/03/23 15:55:22;;;;;;;;;;;15.40;78.80;;;;;;9171038;19;20241;-67
2023/03/23 15:58:27;;;;;;;;;;;15.40;78.80;;;;;;9176409;19;20757;-68
2023/03/23 16:01:32;;;;;;;;;;;15.40;78.80;;;;;;9176114;19;19926;-67
2023/03/23 16:04:40;;;;;;;;;;;15.40;78.70;;;;;;9176458;19;19915;-67
2023/03/23 16:07:47;;;;;;;;;;;15.40;78.70;;;;;;9175055;19;19974;-67
2023/03/23 16:10:53;;;;;;;;;;;15.40;78.80;;;;;;9175870;19;20252;-67
2023/03/23 16:13:57;;;;;;;;;;;15.40;78.70;;;;;;9176507;19;19930;-67
2023/03/23 16:17:03;;;;;;;;;;;15.40;78.70;;;;;;9172657;19;19930;-67
2023/03/23 16:20:17;;;;;;;;;;;15.50;78.70;;;;;;9173333;19;19927;-68
2023/03/23 16:23:23;;;;;;;;;;;15.40;78.70;;;;;;9175911;19;19929;-68
2023/03/23 16:26:26;;;;;;;;;;;15.40;78.70;;;;;;9175144;19;19922;-67
2023/03/23 16:29:32;;;;;;;;;;;15.40;78.70;;;;;;9172703;19;19918;-67
2023/03/23 16:32:56;;;;;;;;;;;15.40;78.70;;;;;;9170510;19;19923;-68
2023/03/23 16:36:05;;;;;;;;;;;15.30;78.60;;;;;;9167244;19;19915;-67
2023/03/23 16:39:12;;;;;;;;;;;15.30;78.60;;;;;;9166495;19;20650;-67
2023/03/23 16:42:18;;;;;;;;;;;15.30;78.70;;;;;;9168153;19;19919;-67
2023/03/23 16:45:22;;;;;;;;;;;15.20;78.60;;;;;;9171820;19;19987;-67
2023/03/23 16:48:28;;;;;;;;;;;15.20;78.60;;;;;;9172485;19;19918;-67
2023/03/23 16:51:34;;;;;;;;;;;15.20;78.60;;;;;;9171707;19;19927;-67
2023/03/23 16:54:40;;;;;;;;;;;15.10;78.70;;;;;;9163571;19;19925;-67
2023/03/23 16:57:44;;;;;;;;;;;15.10;78.60;;;;;;9164627;19;20328;-67
2023/03/23 17:00:52;;;;;;;;;;;15.10;78.60;;;;;;9161312;19;19918;-67
2023/03/23 17:03:59;;;;;;;;;;;15.10;78.60;;;;;;9165263;19;20262;-68
2023/03/23 17:07:07;;;;;;;;;;;15.00;78.50;;;;;;9163913;19;19938;-68
2023/03/23 17:10:11;;;;;;;;;;;15.00;78.60;;;;;;9164546;19;19925;-68
2023/03/23 17:13:18;;;;;;;;;;;15.00;78.60;;;;;;9170632;19;19923;-68
2023/03/23 17:16:21;;;;;;;;;;;15.00;78.60;;;;;;9172354;19;19931;-68
2023/03/23 17:19:27;;;;;;;;;;;14.90;78.60;;;;;;9172003;19;19923;-68
2023/03/23 17:22:39;;;;;;;;;;;14.90;78.60;;;;;;9173881;19;19918;-67
2023/03/23 17:25:47;;;;;;;;;;;14.80;78.60;;;;;;9172296;19;19925;-68
2023/03/23 17:28:51;;;;;;;;;;;14.80;78.60;;;;;;9172146;19;19919;-68
2023/03/23 17:31:57;;;;;;;;;;;14.70;78.60;;;;;;9171042;19;19942;-67
2023/03/23 17:35:00;;;;;;;;;;;14.70;78.60;;;;;;9173808;19;19926;-67
2023/03/23 17:38:08;;;;;;;;;;;14.60;78.50;;;;;;9173507;19;20545;-67
2023/03/23 17:41:13;;;;;;;;;;;14.60;78.60;;;;;;9169890;19;19918;-68
2023/03/23 17:44:19;;;;;;;;;;;14.60;78.60;;;;;;9172222;19;19925;-68
2023/03/23 17:47:23;;;;;;;;;;;14.50;78.60;;;;;;9174155;19;19926;-68
2023/03/23 17:50:29;;;;;;;;;;;14.50;78.60;;;;;;9173262;19;19998;-68
2023/03/23 17:53:36;;;;;;;;;;;14.50;78.60;;;;;;9173157;19;19923;-67
2023/03/23 17:56:42;;;;;;;;;;;14.40;78.60;;;;;;9166723;19;19922;-68
2023/03/23 17:59:46;;;;;;;;;;;14.40;78.60;;;;;;9170989;19;19951;-68
2023/03/23 18:02:52;;;;;;;;;;;14.40;78.60;;;;;;9171624;19;19918;-68
2023/03/23 18:05:59;;;;;;;;;;;14.30;78.60;;;;;;9170791;19;19977;-68
2023/03/23 18:09:07;;;;;;;;;;;14.30;78.60;;;;;;9170268;19;19930;-68
2023/03/23 18:12:11;;;;;;;;;;;14.20;78.60;;;;;;9172246;19;19951;-67
2023/03/23 18:15:17;;;;;;;;;;;14.20;78.60;;;;;;9162829;19;19926;-68
2023/03/23 18:18:21;;;;;;;;;;;14.10;78.60;;;;;;9169525;19;19918;-68
2023/03/23 18:21:27;;;;;;;;;;;14.10;78.70;;;;;;9158342;19;19911;-68